VIP207 ENAT-ENSB
Flight info
| Callsign | VIP207 |
|---|---|
| Flight time | 1h 24m |
| Altitude | 38000 |
| Route | ELSEV DCT UVSAS DCT PITOL DCT INPAR DCT LALAD |
| Aircraft | B38M/M-SDE1FGHILORVWXY/HB1 |
Departure
| Time | 2026-05-04 16:27 |
|---|---|
| Airport | Alta Airport (ENAT) |
Arrival
| Time | 2026-05-04 17:51 |
|---|---|
| Airport | Svalbard Airport, Longyear (ENSB) |
| Time | Latitude | Longitude | Altitude | Speed | Heading |
|---|---|---|---|---|---|
| 2026-05-04 15:45 | 69.97899 | 23.34448 | 38 ft | 0 kts | 211° |
| 2026-05-04 16:19 | 69.97948 | 23.34588 | 38 ft | 4 kts | 261° |
| 2026-05-04 16:19 | 69.97947 | 23.34636 | 38 ft | 1 kts | 300° |
| 2026-05-04 16:23 | 69.97949 | 23.34625 | 38 ft | 2 kts | 300° |
| 2026-05-04 16:24 | 69.98085 | 23.34161 | 38 ft | 13 kts | 318° |
| 2026-05-04 16:25 | 69.98213 | 23.33870 | 38 ft | 7 kts | 2° |
| 2026-05-04 16:26 | 69.98220 | 23.34206 | 39 ft | 12 kts | 121° |
| 2026-05-04 16:26 | 69.97153 | 23.39328 | 574 ft | 165 kts | 122° |
| 2026-05-04 16:27 | 69.96649 | 23.45529 | 2327 ft | 169 kts | 63° |
| 2026-05-04 16:28 | 69.99869 | 23.44515 | 4044 ft | 217 kts | 298° |
| 2026-05-04 16:28 | 70.00625 | 23.31127 | 6664 ft | 225 kts | 289° |
| 2026-05-04 16:29 | 70.05577 | 23.17695 | 9465 ft | 270 kts | 321° |
| 2026-05-04 16:30 | 70.10484 | 23.06952 | 10861 ft | 317 kts | 321° |
| 2026-05-04 16:31 | 70.14114 | 22.98943 | 12213 ft | 331 kts | 320° |
| 2026-05-04 16:31 | 70.19867 | 22.87049 | 14621 ft | 346 kts | 333° |
| 2026-05-04 16:32 | 70.26409 | 22.77651 | 17117 ft | 354 kts | 329° |
| 2026-05-04 16:33 | 70.30848 | 22.70936 | 18587 ft | 362 kts | 328° |
| 2026-05-04 16:33 | 70.35362 | 22.64031 | 19855 ft | 368 kts | 328° |
| 2026-05-04 16:34 | 70.39964 | 22.56944 | 21066 ft | 376 kts | 328° |
| 2026-05-04 16:34 | 70.42301 | 22.53334 | 21690 ft | 380 kts | 328° |
| 2026-05-04 16:35 | 70.49412 | 22.42290 | 23442 ft | 391 kts | 328° |
| 2026-05-04 16:35 | 70.56756 | 22.30788 | 24867 ft | 402 kts | 329° |
| 2026-05-04 16:36 | 70.59245 | 22.26867 | 25337 ft | 405 kts | 329° |
| 2026-05-04 16:36 | 70.64280 | 22.18903 | 26229 ft | 412 kts | 330° |
| 2026-05-04 16:37 | 70.69405 | 22.10750 | 27046 ft | 420 kts | 330° |
| 2026-05-04 16:37 | 70.71995 | 22.06613 | 27452 ft | 423 kts | 330° |
| 2026-05-04 16:37 | 70.77242 | 21.98194 | 28239 ft | 430 kts | 330° |
| 2026-05-04 16:38 | 70.82539 | 21.89642 | 28988 ft | 437 kts | 330° |
| 2026-05-04 16:39 | 70.90684 | 21.76389 | 29959 ft | 447 kts | 330° |
| 2026-05-04 16:39 | 70.96255 | 21.67633 | 30553 ft | 454 kts | 338° |
| 2026-05-04 16:40 | 71.02367 | 21.62302 | 31148 ft | 460 kts | 342° |
| 2026-05-04 16:40 | 71.08533 | 21.56735 | 31719 ft | 465 kts | 342° |
| 2026-05-04 16:41 | 71.13712 | 21.51998 | 32153 ft | 469 kts | 342° |
| 2026-05-04 16:41 | 71.23146 | 21.43300 | 33154 ft | 472 kts | 342° |
| 2026-05-04 16:42 | 71.32599 | 21.34498 | 34113 ft | 472 kts | 341° |
| 2026-05-04 16:43 | 71.38893 | 21.28585 | 34728 ft | 472 kts | 341° |
| 2026-05-04 16:43 | 71.45191 | 21.22632 | 35310 ft | 472 kts | 342° |
| 2026-05-04 16:43 | 71.48297 | 21.19681 | 35602 ft | 472 kts | 342° |
| 2026-05-04 16:44 | 71.60867 | 21.07631 | 36761 ft | 472 kts | 342° |
| 2026-05-04 16:45 | 71.67158 | 21.01537 | 37316 ft | 472 kts | 342° |
| 2026-05-04 16:46 | 71.76591 | 20.92317 | 37581 ft | 472 kts | 342° |
| 2026-05-04 16:46 | 71.82860 | 20.86139 | 37588 ft | 471 kts | 342° |
| 2026-05-04 16:47 | 71.95415 | 20.73632 | 37589 ft | 473 kts | 342° |
| 2026-05-04 16:48 | 72.07930 | 20.60991 | 37596 ft | 473 kts | 342° |
| 2026-05-04 16:49 | 72.20491 | 20.48120 | 37595 ft | 473 kts | 342° |
| 2026-05-04 16:50 | 72.33072 | 20.35040 | 37601 ft | 473 kts | 342° |
| 2026-05-04 16:51 | 72.42487 | 20.25130 | 37607 ft | 474 kts | 342° |
| 2026-05-04 16:52 | 72.55035 | 20.11752 | 37612 ft | 473 kts | 342° |
| 2026-05-04 16:53 | 72.64463 | 20.01569 | 37612 ft | 474 kts | 342° |
| 2026-05-04 16:54 | 72.76948 | 19.87911 | 37629 ft | 474 kts | 343° |
| 2026-05-04 16:55 | 72.95724 | 19.66987 | 37642 ft | 473 kts | 342° |
| 2026-05-04 16:56 | 73.11342 | 19.49218 | 37659 ft | 473 kts | 342° |
| 2026-05-04 16:57 | 73.20700 | 19.38411 | 37664 ft | 473 kts | 342° |
| 2026-05-04 16:58 | 73.33122 | 19.23869 | 37672 ft | 471 kts | 342° |
| 2026-05-04 17:00 | 73.51777 | 19.01609 | 37683 ft | 471 kts | 343° |
| 2026-05-04 17:01 | 73.67291 | 18.82694 | 37709 ft | 471 kts | 342° |
| 2026-05-04 17:02 | 73.79657 | 18.67357 | 37716 ft | 471 kts | 342° |
| 2026-05-04 17:03 | 73.88943 | 18.55676 | 37733 ft | 472 kts | 342° |
| 2026-05-04 17:03 | 73.98226 | 18.43861 | 37735 ft | 471 kts | 342° |
| 2026-05-04 17:04 | 74.10589 | 18.27905 | 37752 ft | 472 kts | 342° |
| 2026-05-04 17:05 | 74.22947 | 18.11694 | 37759 ft | 472 kts | 342° |
| 2026-05-04 17:06 | 74.32167 | 17.99424 | 37759 ft | 471 kts | 342° |
| 2026-05-04 17:07 | 74.40402 | 17.88344 | 37776 ft | 470 kts | 341° |
| 2026-05-04 17:07 | 74.47541 | 17.78633 | 37787 ft | 469 kts | 341° |
| 2026-05-04 17:08 | 74.56746 | 17.65978 | 37797 ft | 470 kts | 341° |
| 2026-05-04 17:09 | 74.62886 | 17.57455 | 37792 ft | 470 kts | 341° |
| 2026-05-04 17:09 | 74.69006 | 17.48877 | 37816 ft | 470 kts | 342° |
| 2026-05-04 17:10 | 74.84310 | 17.27125 | 37807 ft | 468 kts | 341° |
| 2026-05-04 17:11 | 74.90406 | 17.18337 | 37828 ft | 468 kts | 341° |
| 2026-05-04 17:12 | 74.99484 | 17.05096 | 37826 ft | 467 kts | 340° |
| 2026-05-04 17:13 | 75.14668 | 16.82583 | 37846 ft | 467 kts | 341° |
| 2026-05-04 17:14 | 75.26777 | 16.64286 | 37854 ft | 466 kts | 340° |
| 2026-05-04 17:15 | 75.36183 | 16.55902 | 37871 ft | 463 kts | 349° |
| 2026-05-04 17:16 | 75.48777 | 16.44674 | 37865 ft | 463 kts | 349° |
| 2026-05-04 17:17 | 75.61350 | 16.33159 | 37880 ft | 462 kts | 349° |
| 2026-05-04 17:18 | 75.73880 | 16.21481 | 37897 ft | 462 kts | 349° |
| 2026-05-04 17:19 | 75.86366 | 16.09636 | 37916 ft | 462 kts | 349° |
| 2026-05-04 17:20 | 75.98890 | 15.97540 | 37919 ft | 462 kts | 349° |
| 2026-05-04 17:20 | 76.08204 | 15.88406 | 37933 ft | 461 kts | 349° |
| 2026-05-04 17:21 | 76.20691 | 15.75954 | 37943 ft | 462 kts | 349° |
| 2026-05-04 17:22 | 76.26933 | 15.69649 | 37946 ft | 460 kts | 349° |
| 2026-05-04 17:23 | 76.39347 | 15.56934 | 37944 ft | 460 kts | 349° |
| 2026-05-04 17:23 | 76.45544 | 15.50493 | 37752 ft | 454 kts | 349° |
| 2026-05-04 17:24 | 76.48613 | 15.47284 | 37026 ft | 454 kts | 348° |
| 2026-05-04 17:24 | 76.57801 | 15.37592 | 35041 ft | 452 kts | 348° |
| 2026-05-04 17:25 | 76.60858 | 15.34330 | 34380 ft | 452 kts | 348° |
| 2026-05-04 17:25 | 76.66959 | 15.27793 | 32919 ft | 451 kts | 349° |
| 2026-05-04 17:26 | 76.73009 | 15.21237 | 31645 ft | 444 kts | 349° |
| 2026-05-04 17:26 | 76.81821 | 15.11591 | 30138 ft | 427 kts | 349° |
| 2026-05-04 17:27 | 76.87498 | 15.05305 | 29126 ft | 414 kts | 349° |
| 2026-05-04 17:27 | 76.92147 | 15.00116 | 28166 ft | 407 kts | 349° |
| 2026-05-04 17:28 | 76.97546 | 14.94043 | 27082 ft | 400 kts | 349° |
| 2026-05-04 17:29 | 77.05527 | 14.84973 | 25545 ft | 389 kts | 349° |
| 2026-05-04 17:29 | 77.13310 | 14.76017 | 24118 ft | 380 kts | 349° |
| 2026-05-04 17:30 | 77.20905 | 14.67169 | 22611 ft | 370 kts | 348° |
| 2026-05-04 17:31 | 77.25849 | 14.61351 | 21649 ft | 364 kts | 349° |
| 2026-05-04 17:31 | 77.33110 | 14.52727 | 20257 ft | 356 kts | 348° |
| 2026-05-04 17:32 | 77.37869 | 14.47018 | 19380 ft | 351 kts | 349° |
| 2026-05-04 17:33 | 77.44853 | 14.38564 | 18057 ft | 345 kts | 348° |
| 2026-05-04 17:33 | 77.47162 | 14.35747 | 17613 ft | 341 kts | 348° |
| 2026-05-04 17:34 | 77.53954 | 14.27397 | 16267 ft | 333 kts | 349° |
| 2026-05-04 17:34 | 77.56186 | 14.24642 | 15888 ft | 330 kts | 348° |
| 2026-05-04 17:35 | 77.62774 | 14.16419 | 14595 ft | 324 kts | 348° |
| 2026-05-04 17:35 | 77.67096 | 14.10978 | 13740 ft | 319 kts | 348° |
| 2026-05-04 17:35 | 77.69242 | 14.08263 | 13269 ft | 318 kts | 348° |
| 2026-05-04 17:36 | 77.71365 | 14.05569 | 12835 ft | 315 kts | 348° |
| 2026-05-04 17:36 | 77.73474 | 14.02880 | 12405 ft | 313 kts | 348° |
| 2026-05-04 17:36 | 77.75567 | 14.00204 | 11985 ft | 310 kts | 348° |
| 2026-05-04 17:36 | 77.77642 | 13.97541 | 11557 ft | 308 kts | 348° |
| 2026-05-04 17:37 | 77.79705 | 13.94886 | 11155 ft | 306 kts | 347° |
| 2026-05-04 17:37 | 77.81727 | 13.92275 | 10740 ft | 304 kts | 347° |
| 2026-05-04 17:37 | 77.83746 | 13.89657 | 10523 ft | 296 kts | 347° |
| 2026-05-04 17:37 | 77.85700 | 13.87115 | 10363 ft | 286 kts | 347° |
| 2026-05-04 17:38 | 77.87587 | 13.84652 | 10226 ft | 277 kts | 347° |
| 2026-05-04 17:38 | 77.89413 | 13.82264 | 10104 ft | 267 kts | 348° |
| 2026-05-04 17:38 | 77.91170 | 13.79957 | 9995 ft | 257 kts | 348° |
| 2026-05-04 17:38 | 77.92883 | 13.77703 | 9693 ft | 255 kts | 348° |
| 2026-05-04 17:39 | 77.96287 | 13.73202 | 8987 ft | 253 kts | 348° |
| 2026-05-04 17:39 | 77.97978 | 13.70956 | 8654 ft | 252 kts | 348° |
| 2026-05-04 17:39 | 77.99666 | 13.68709 | 8310 ft | 251 kts | 348° |
| 2026-05-04 17:40 | 78.01344 | 13.66465 | 7973 ft | 251 kts | 348° |
| 2026-05-04 17:40 | 78.03025 | 13.64215 | 7638 ft | 250 kts | 348° |
| 2026-05-04 17:40 | 78.04702 | 13.61999 | 7322 ft | 248 kts | 351° |
| 2026-05-04 17:40 | 78.06378 | 13.62116 | 7004 ft | 238 kts | 20° |
| 2026-05-04 17:41 | 78.07877 | 13.65377 | 6652 ft | 237 kts | 29° |
| 2026-05-04 17:41 | 78.09337 | 13.69026 | 6347 ft | 236 kts | 30° |
| 2026-05-04 17:41 | 78.10757 | 13.72679 | 6109 ft | 233 kts | 31° |
| 2026-05-04 17:41 | 78.12182 | 13.76415 | 5960 ft | 233 kts | 31° |
| 2026-05-04 17:42 | 78.13598 | 13.80175 | 5813 ft | 232 kts | 31° |
| 2026-05-04 17:42 | 78.15009 | 13.83958 | 5663 ft | 230 kts | 31° |
| 2026-05-04 17:42 | 78.16409 | 13.87744 | 5505 ft | 229 kts | 31° |
| 2026-05-04 17:42 | 78.17798 | 13.91515 | 5367 ft | 228 kts | 31° |
| 2026-05-04 17:43 | 78.19185 | 13.95301 | 5216 ft | 227 kts | 31° |
| 2026-05-04 17:43 | 78.20561 | 13.99064 | 5064 ft | 226 kts | 31° |
| 2026-05-04 17:43 | 78.21927 | 14.02815 | 4925 ft | 223 kts | 31° |
| 2026-05-04 17:43 | 78.23259 | 14.06481 | 4757 ft | 217 kts | 32° |
| 2026-05-04 17:44 | 78.24522 | 14.10343 | 4633 ft | 214 kts | 36° |
| 2026-05-04 17:44 | 78.25749 | 14.14424 | 4523 ft | 212 kts | 36° |
| 2026-05-04 17:44 | 78.26973 | 14.18482 | 4410 ft | 212 kts | 36° |
| 2026-05-04 17:44 | 78.28169 | 14.22435 | 4298 ft | 207 kts | 36° |
| 2026-05-04 17:45 | 78.29354 | 14.26433 | 4176 ft | 199 kts | 41° |
| 2026-05-04 17:45 | 78.30103 | 14.31752 | 4050 ft | 191 kts | 71° |
| 2026-05-04 17:45 | 78.30224 | 14.38273 | 3936 ft | 194 kts | 88° |
| 2026-05-04 17:45 | 78.30080 | 14.44915 | 3787 ft | 196 kts | 94° |
| 2026-05-04 17:46 | 78.29835 | 14.51503 | 3602 ft | 194 kts | 96° |
| 2026-05-04 17:46 | 78.29540 | 14.57889 | 3417 ft | 190 kts | 98° |
| 2026-05-04 17:46 | 78.29217 | 14.64139 | 3199 ft | 186 kts | 99° |
| 2026-05-04 17:46 | 78.28893 | 14.70107 | 3031 ft | 174 kts | 99° |
| 2026-05-04 17:47 | 78.28589 | 14.75621 | 2939 ft | 160 kts | 99° |
| 2026-05-04 17:47 | 78.28303 | 14.80773 | 2749 ft | 153 kts | 99° |
| 2026-05-04 17:47 | 78.28026 | 14.85719 | 2558 ft | 147 kts | 99° |
| 2026-05-04 17:47 | 78.27758 | 14.90515 | 2374 ft | 145 kts | 99° |
| 2026-05-04 17:48 | 78.27490 | 14.95289 | 2179 ft | 145 kts | 99° |
| 2026-05-04 17:48 | 78.27223 | 15.00061 | 1958 ft | 145 kts | 99° |
| 2026-05-04 17:48 | 78.26959 | 15.04751 | 1766 ft | 138 kts | 100° |
| 2026-05-04 17:48 | 78.26715 | 15.09091 | 1543 ft | 130 kts | 101° |
| 2026-05-04 17:49 | 78.26480 | 15.13318 | 1314 ft | 127 kts | 101° |
| 2026-05-04 17:49 | 78.26250 | 15.17471 | 1100 ft | 126 kts | 104° |
| 2026-05-04 17:49 | 78.26019 | 15.21586 | 924 ft | 123 kts | 104° |
| 2026-05-04 17:49 | 78.25791 | 15.25604 | 766 ft | 122 kts | 105° |
| 2026-05-04 17:50 | 78.25567 | 15.29630 | 598 ft | 122 kts | 105° |
| 2026-05-04 17:50 | 78.25339 | 15.33615 | 431 ft | 122 kts | 105° |
| 2026-05-04 17:50 | 78.25111 | 15.37654 | 294 ft | 123 kts | 105° |
| 2026-05-04 17:50 | 78.24887 | 15.41667 | 132 ft | 121 kts | 105° |
| 2026-05-04 17:51 | 78.24678 | 15.45388 | 93 ft | 90 kts | 105° |
| 2026-05-04 17:51 | 78.24571 | 15.47295 | 99 ft | 27 kts | 105° |
| 2026-05-04 17:51 | 78.24522 | 15.48177 | 101 ft | 27 kts | 105° |
| 2026-05-04 17:51 | 78.24474 | 15.49042 | 101 ft | 23 kts | 105° |
| 2026-05-04 17:52 | 78.24471 | 15.49381 | 98 ft | 8 kts | 43° |
| 2026-05-04 17:52 | 78.24526 | 15.49480 | 97 ft | 5 kts | 15° |
| 2026-05-04 17:52 | 78.24552 | 15.49512 | 99 ft | 3 kts | 14° |
| 2026-05-04 17:52 | 78.24566 | 15.49529 | 99 ft | 2 kts | 14° |
| 2026-05-04 17:53 | 78.24567 | 15.49531 | 99 ft | 0 kts | 14° |
| 2026-05-04 17:54 | 78.24583 | 15.49550 | 100 ft | 2 kts | 13° |
| 2026-05-04 17:54 | 78.24599 | 15.49614 | 98 ft | 4 kts | 67° |
| 2026-05-04 17:54 | 78.24604 | 15.49715 | 98 ft | 2 kts | 77° |
| 2026-05-04 17:54 | 78.24605 | 15.49736 | 98 ft | 0 kts | 77° |